Time;durP1;ratioP1;P1;durP2;ratioP2;P2;SDS_P1;SDS_P2;PMS_P1;PMS_P2;Temp;Humidity;BMP_temperature;BMP_pressure;BME280_temperature;BME280_humidity;BME280_pressure;Samples;Min_cycle;Max_cycle;Signal;HPM_P1;HPM_P2
2022/05/30 00:01:17;;;;;;;8.33;0.80;;;8.50;99.90;;;;;;4956251;28;20043;-42
2022/05/30 00:03:42;;;;;;;5.33;1.10;;;8.40;99.90;;;;;;4969022;28;20510;-43
2022/05/30 00:06:17;;;;;;;2.67;0.80;;;8.40;99.90;;;;;;4962819;28;20081;-44
2022/05/30 00:08:56;;;;;;;2.67;0.70;;;8.40;99.90;;;;;;4963544;28;20053;-43
2022/05/30 00:11:22;;;;;;;6.57;1.00;;;8.30;99.90;;;;;;4968044;28;20343;-42
2022/05/30 00:13:49;;;;;;;3.50;0.77;;;8.30;99.90;;;;;;4966147;28;20106;-43
2022/05/30 00:16:19;;;;;;;3.23;1.00;;;8.20;99.90;;;;;;4950518;28;20058;-43
2022/05/30 00:18:55;;;;;;;2.83;0.63;;;8.20;99.90;;;;;;4953146;28;20043;-43
2022/05/30 00:21:34;;;;;;;2.03;0.80;;;8.10;99.90;;;;;;4954103;28;20398;-42
2022/05/30 00:24:01;;;;;;;3.43;0.70;;;8.00;99.90;;;;;;4969467;28;20081;-43
2022/05/30 00:26:59;;;;;;;4.90;0.50;;;8.00;99.90;;;;;;4964507;28;20058;-42
2022/05/30 00:29:34;;;;;;;3.53;0.57;;;8.00;99.90;;;;;;4982417;28;20109;-43
2022/05/30 00:32:00;;;;;;;6.47;0.90;;;7.90;99.90;;;;;;4962201;28;20051;-41
2022/05/30 00:34:27;;;;;;;2.10;0.57;;;7.90;99.90;;;;;;4944402;28;20050;-43
2022/05/30 00:36:53;;;;;;;4.63;0.70;;;7.90;99.90;;;;;;4955311;28;20039;-42
2022/05/30 00:39:19;;;;;;;3.63;0.50;;;7.90;99.90;;;;;;4957166;28;20121;-43
2022/05/30 00:41:45;;;;;;;2.37;0.60;;;7.90;99.90;;;;;;4963478;28;20478;-45
2022/05/30 00:44:11;;;;;;;1.90;0.60;;;7.90;99.90;;;;;;4956166;28;20046;-42
2022/05/30 00:46:37;;;;;;;3.90;0.53;;;7.90;99.90;;;;;;4945272;28;20066;-43
2022/05/30 00:49:06;;;;;;;2.30;0.60;;;7.90;99.90;;;;;;4958832;28;20042;-42
2022/05/30 00:51:34;;;;;;;4.63;0.83;;;7.90;99.90;;;;;;4957074;28;20039;-43
2022/05/30 00:54:02;;;;;;;3.00;0.90;;;7.90;99.90;;;;;;4963148;28;20550;-42
2022/05/30 00:56:32;;;;;;;3.17;0.60;;;7.90;99.90;;;;;;4961088;28;20047;-43
2022/05/30 00:59:00;;;;;;;3.33;0.82;;;7.90;99.90;;;;;;4929729;28;20102;-42
2022/05/30 01:01:26;;;;;;;4.03;0.70;;;7.90;99.90;;;;;;4961569;28;20047;-43
2022/05/30 01:06:57;;;;;;;2.67;0.70;;;7.90;99.90;;;;;;4949646;28;20142;-43
2022/05/30 01:09:40;;;;;;;3.30;0.70;;;7.90;99.90;;;;;;4965944;28;20133;-43
2022/05/30 01:12:09;;;;;;;5.07;1.00;;;7.80;99.90;;;;;;4967537;28;20450;-42
2022/05/30 01:14:42;;;;;;;2.67;1.10;;;7.80;99.90;;;;;;4957568;28;20078;-43
2022/05/30 01:17:14;;;;;;;4.03;0.70;;;7.90;99.90;;;;;;4959606;28;20053;-42
2022/05/30 01:19:51;;;;;;;4.17;0.60;;;7.80;99.90;;;;;;4970544;28;20506;-42
2022/05/30 01:22:36;;;;;;;4.43;1.00;;;7.90;99.90;;;;;;4969933;28;20267;-42
2022/05/30 01:25:33;;;;;;;3.67;1.00;;;7.90;99.90;;;;;;4978436;28;20148;-42
2022/05/30 01:28:13;;;;;;;3.97;0.67;;;7.80;99.90;;;;;;4952007;28;20050;-42
2022/05/30 01:30:41;;;;;;;2.77;0.93;;;7.80;99.90;;;;;;4975037;28;20059;-42
2022/05/30 01:33:25;;;;;;;2.67;0.60;;;7.80;99.90;;;;;;4973103;28;20098;-42
2022/05/30 01:35:58;;;;;;;3.67;0.70;;;7.70;99.90;;;;;;4974824;28;20149;-42
2022/05/30 01:38:34;;;;;;;2.93;0.50;;;7.80;99.90;;;;;;4962267;28;20395;-42
2022/05/30 01:41:13;;;;;;;3.57;0.80;;;7.70;99.90;;;;;;4963800;28;20495;-42
2022/05/30 01:44:24;;;;;;;2.40;0.70;;;7.70;99.90;;;;;;4955031;28;20113;-43
2022/05/30 01:46:51;;;;;;;1.88;0.50;;;7.70;99.90;;;;;;4964352;28;20050;-39
2022/05/30 01:49:17;;;;;;;3.37;0.63;;;7.80;99.90;;;;;;4973697;28;20050;-42
2022/05/30 01:51:43;;;;;;;3.03;0.67;;;7.70;99.90;;;;;;4973372;28;20042;-42
2022/05/30 01:54:12;;;;;;;3.20;0.50;;;7.80;99.90;;;;;;4972532;28;20109;-42
2022/05/30 01:56:38;;;;;;;4.03;0.63;;;7.70;99.90;;;;;;4964770;28;20118;-43
2022/05/30 01:59:06;;;;;;;2.00;0.30;;;8.00;99.90;;;;;;4970251;28;20050;-42
2022/05/30 02:01:36;;;;;;;1.38;0.40;;;7.80;99.90;;;;;;4968465;28;20050;-42
2022/05/30 02:04:01;;;;;;;4.40;0.60;;;7.80;99.90;;;;;;4975283;28;20426;-41
2022/05/30 02:06:28;;;;;;;4.50;0.60;;;7.80;99.90;;;;;;4954364;28;20313;-43
2022/05/30 02:09:02;;;;;;;4.67;0.80;;;7.80;99.90;;;;;;4955312;28;20050;-43
2022/05/30 02:11:34;;;;;;;1.77;0.40;;;7.80;99.90;;;;;;4977907;28;20540;-42
2022/05/30 02:14:01;;;;;;;2.43;0.43;;;7.70;99.90;;;;;;4955418;28;20058;-43
2022/05/30 02:19:12;;;;;;;2.70;0.60;;;7.70;99.90;;;;;;4969349;28;20061;-43
2022/05/30 02:21:38;;;;;;;1.97;0.67;;;7.70;99.90;;;;;;4967752;28;20367;-42
2022/05/30 02:24:06;;;;;;;5.80;0.93;;;7.70;99.90;;;;;;4974013;28;20070;-42
2022/05/30 02:26:40;;;;;;;4.37;0.60;;;7.70;99.90;;;;;;4966293;28;20668;-44
2022/05/30 02:29:06;;;;;;;2.57;0.77;;;7.70;99.90;;;;;;4967599;28;20066;-43
2022/05/30 02:31:32;;;;;;;2.60;0.67;;;7.70;99.90;;;;;;4973064;28;20058;-42
2022/05/30 02:36:46;;;;;;;6.37;1.20;;;7.70;99.90;;;;;;4931645;28;20058;-43
2022/05/30 02:39:18;;;;;;;3.77;0.80;;;7.70;99.90;;;;;;4972908;28;20489;-42
2022/05/30 02:41:47;;;;;;;4.70;0.90;;;7.70;99.90;;;;;;4970277;28;20050;-43
2022/05/30 02:44:14;;;;;;;2.90;0.90;;;7.60;99.90;;;;;;4978643;28;20051;-43
2022/05/30 02:46:59;;;;;;;4.00;1.07;;;7.70;99.90;;;;;;4950049;28;20043;-44
2022/05/30 02:49:31;;;;;;;2.55;1.00;;;7.70;99.90;;;;;;5005148;28;20134;-43
2022/05/30 02:51:59;;;;;;;4.03;1.10;;;7.70;99.90;;;;;;4981511;28;20042;-43
2022/05/30 02:54:27;;;;;;;6.93;1.37;;;7.70;99.90;;;;;;4957143;28;20071;-42
2022/05/30 02:57:01;;;;;;;5.33;1.13;;;7.70;99.90;;;;;;4965143;28;20042;-42
2022/05/30 02:59:28;;;;;;;3.83;1.10;;;7.60;99.90;;;;;;4968299;28;20074;-45
2022/05/30 03:01:54;;;;;;;3.83;1.00;;;7.60;99.90;;;;;;4972260;28;20054;-43
2022/05/30 03:04:21;;;;;;;4.40;1.10;;;7.60;99.90;;;;;;4966725;28;20221;-42
2022/05/30 03:06:47;;;;;;;3.07;1.10;;;7.60;99.90;;;;;;4949668;28;20451;-42
2022/05/30 03:09:14;;;;;;;5.77;1.47;;;7.60;99.90;;;;;;4965095;28;20200;-42
2022/05/30 03:11:40;;;;;;;5.60;1.33;;;7.60;99.90;;;;;;4970470;28;20496;-42
2022/05/30 03:14:08;;;;;;;3.47;1.20;;;7.60;99.90;;;;;;4958632;28;20066;-44
2022/05/30 03:16:34;;;;;;;6.83;1.43;;;7.60;99.90;;;;;;4952572;28;20091;-42
2022/05/30 03:18:59;;;;;;;7.17;1.40;;;7.60;99.90;;;;;;4965696;28;20728;-42
2022/05/30 03:21:25;;;;;;;5.57;1.63;;;7.60;99.90;;;;;;4957827;28;20043;-43
2022/05/30 03:23:52;;;;;;;7.27;1.77;;;7.60;99.90;;;;;;4958963;28;20466;-43
2022/05/30 03:26:17;;;;;;;3.10;1.20;;;7.60;99.90;;;;;;4953834;28;20038;-42
2022/05/30 03:28:43;;;;;;;5.17;1.60;;;7.50;99.90;;;;;;4950694;28;20689;-42
2022/05/30 03:31:09;;;;;;;5.87;1.77;;;7.60;99.90;;;;;;4969137;28;20055;-42
2022/05/30 03:33:55;;;;;;;2.30;1.37;;;7.50;99.90;;;;;;4952844;28;20051;-43
2022/05/30 03:36:26;;;;;;;4.53;1.60;;;7.60;99.90;;;;;;4962103;28;20059;-42
2022/05/30 03:39:06;;;;;;;5.53;1.67;;;7.60;99.90;;;;;;4967330;28;20070;-43
2022/05/30 03:41:32;;;;;;;4.07;1.50;;;7.60;99.90;;;;;;4968466;28;20047;-43
2022/05/30 03:44:00;;;;;;;6.33;1.67;;;7.70;99.90;;;;;;4955092;28;20133;-42
2022/05/30 03:46:29;;;;;;;7.07;1.60;;;7.60;99.90;;;;;;4950907;28;20502;-43
2022/05/30 03:49:11;;;;;;;7.10;1.50;;;7.60;99.90;;;;;;4968971;28;20100;-43
2022/05/30 03:51:36;;;;;;;4.27;1.53;;;7.60;99.90;;;;;;4972507;28;20413;-42
2022/05/30 03:54:04;;;;;;;3.80;1.70;;;7.70;99.90;;;;;;4969044;28;20126;-42
2022/05/30 03:56:49;;;;;;;3.67;1.30;;;7.70;99.90;;;;;;4960929;28;20490;-42
2022/05/30 03:59:33;;;;;;;2.83;1.40;;;7.70;99.90;;;;;;4957524;28;20078;-43
2022/05/30 04:02:06;;;;;;;7.53;1.80;;;7.70;99.90;;;;;;4950233;28;20553;-42
2022/05/30 04:04:31;;;;;;;5.53;1.50;;;7.80;99.90;;;;;;4963065;28;20051;-44
2022/05/30 04:06:57;;;;;;;7.27;1.80;;;7.70;99.90;;;;;;4956282;28;20040;-44
2022/05/30 04:09:24;;;;;;;7.57;2.00;;;7.80;99.90;;;;;;4956196;28;20063;-43
2022/05/30 04:12:09;;;;;;;6.20;2.97;;;7.80;99.90;;;;;;4957617;28;20047;-43
2022/05/30 04:14:43;;;;;;;8.17;1.80;;;7.80;99.90;;;;;;4954151;28;20046;-43
2022/05/30 04:17:18;;;;;;;4.53;1.37;;;7.80;99.90;;;;;;4963011;28;20054;-44
2022/05/30 04:19:54;;;;;;;4.63;1.33;;;7.80;99.90;;;;;;4955251;28;20086;-44
2022/05/30 04:22:20;;;;;;;6.60;1.53;;;7.90;99.90;;;;;;4951546;28;20057;-43
2022/05/30 04:24:46;;;;;;;3.67;1.57;;;7.90;99.90;;;;;;4965668;28;20077;-42
2022/05/30 04:27:13;;;;;;;4.77;1.33;;;7.90;99.90;;;;;;4950115;28;20054;-42
2022/05/30 04:29:39;;;;;;;7.70;1.63;;;7.90;99.90;;;;;;4966766;28;20055;-43
2022/05/30 04:32:17;;;;;;;3.33;1.33;;;7.90;99.90;;;;;;4967409;28;20069;-43
2022/05/30 04:34:43;;;;;;;5.13;1.73;;;7.90;99.90;;;;;;4965306;28;20051;-41
2022/05/30 04:37:12;;;;;;;7.63;1.50;;;7.90;99.90;;;;;;4952236;28;20046;-43
2022/05/30 04:39:38;;;;;;;3.07;1.67;;;8.00;99.90;;;;;;4946510;28;20053;-43
2022/05/30 04:42:04;;;;;;;7.17;1.40;;;8.00;99.90;;;;;;4958526;28;20138;-44
2022/05/30 04:44:35;;;;;;;4.10;1.37;;;8.00;99.90;;;;;;4972598;28;20078;-43
2022/05/30 04:47:01;;;;;;;4.27;1.33;;;8.00;99.90;;;;;;4949032;28;20051;-43
2022/05/30 04:49:28;;;;;;;3.63;1.40;;;8.00;99.90;;;;;;4954294;28;20422;-44
2022/05/30 04:51:54;;;;;;;7.47;1.60;;;8.10;99.90;;;;;;4952155;28;20145;-42
2022/05/30 04:54:27;;;;;;;4.67;1.50;;;8.10;99.90;;;;;;4961512;28;20050;-43
2022/05/30 04:57:06;;;;;;;2.67;1.30;;;8.10;99.90;;;;;;4959928;28;20069;-43
2022/05/30 04:59:41;;;;;;;2.97;1.43;;;8.10;99.90;;;;;;4981400;28;20493;-43
2022/05/30 05:02:08;;;;;;;3.60;1.60;;;8.10;99.90;;;;;;4976660;28;20447;-43
2022/05/30 05:04:34;;;;;;;2.47;1.30;;;8.10;99.90;;;;;;4996134;28;20053;-44
2022/05/30 05:07:03;;;;;;;4.77;1.37;;;8.20;99.90;;;;;;4977798;28;20419;-44
2022/05/30 05:09:51;;;;;;;6.30;1.30;;;8.20;99.90;;;;;;4991343;28;20049;-44
2022/05/30 05:12:17;;;;;;;3.20;1.40;;;8.20;99.90;;;;;;4986516;28;20422;-45
2022/05/30 05:14:44;;;;;;;5.77;1.40;;;8.30;99.90;;;;;;4983921;28;20113;-44
2022/05/30 05:17:10;;;;;;;4.37;1.20;;;8.40;99.90;;;;;;4958483;28;20046;-43
2022/05/30 05:19:41;;;;;;;4.73;0.97;;;8.50;99.90;;;;;;4976341;28;20045;-43
2022/05/30 05:22:36;;;;;;;4.23;1.57;;;8.60;99.90;;;;;;4988048;28;20048;-47
2022/05/30 05:25:05;;;;;;;7.20;1.30;;;8.70;99.90;;;;;;4981971;28;20042;-43
2022/05/30 05:27:31;;;;;;;5.40;1.20;;;8.80;99.90;;;;;;4964303;28;20050;-43
2022/05/30 05:29:57;;;;;;;4.50;1.07;;;8.90;99.90;;;;;;4991771;28;20058;-43
2022/05/30 05:32:23;;;;;;;4.20;0.70;;;9.10;99.90;;;;;;4990524;28;20055;-43
2022/05/30 05:34:54;;;;;;;2.50;0.70;;;9.20;99.90;;;;;;4986409;28;20059;-42
2022/05/30 05:37:20;;;;;;;4.13;0.40;;;9.20;99.90;;;;;;4981352;28;20038;-41
2022/05/30 05:39:47;;;;;;;3.00;0.63;;;9.30;99.90;;;;;;4989724;28;20570;-43
2022/05/30 05:42:13;;;;;;;2.07;0.87;;;9.40;99.90;;;;;;4985323;28;20065;-43
2022/05/30 05:44:42;;;;;;;2.13;0.70;;;9.40;99.90;;;;;;4990184;28;20042;-42
2022/05/30 05:47:08;;;;;;;2.70;0.80;;;9.40;99.90;;;;;;4963970;28;20050;-44
2022/05/30 05:49:35;;;;;;;3.10;0.97;;;9.50;99.90;;;;;;4997751;28;20065;-43
2022/05/30 05:52:01;;;;;;;2.43;0.70;;;9.60;99.90;;;;;;5007062;28;20098;-44
2022/05/30 05:54:39;;;;;;;3.70;0.67;;;9.50;99.90;;;;;;4990560;28;20185;-43
2022/05/30 05:57:05;;;;;;;2.27;0.57;;;9.60;99.90;;;;;;4981616;28;20541;-43
2022/05/30 05:59:30;;;;;;;3.10;0.80;;;9.60;99.90;;;;;;4981601;28;20165;-43
2022/05/30 06:01:59;;;;;;;1.10;0.40;;;9.60;99.90;;;;;;4981742;28;20057;-43
2022/05/30 06:04:25;;;;;;;2.93;0.60;;;9.70;99.90;;;;;;5003637;28;20038;-44
2022/05/30 06:06:51;;;;;;;3.10;0.40;;;9.70;99.90;;;;;;4982428;28;20057;-43
2022/05/30 06:09:17;;;;;;;4.20;0.73;;;9.80;99.90;;;;;;4990700;28;20112;-43
2022/05/30 06:11:43;;;;;;;4.73;0.60;;;9.80;99.90;;;;;;4985278;28;20440;-45
2022/05/30 06:14:09;;;;;;;2.13;0.60;;;9.80;99.90;;;;;;4956754;28;20145;-43
2022/05/30 06:16:40;;;;;;;3.43;0.53;;;9.90;99.90;;;;;;4978396;28;20133;-43
2022/05/30 06:19:10;;;;;;;1.98;0.47;;;9.90;99.90;;;;;;4994372;28;20050;-44
2022/05/30 06:21:44;;;;;;;2.93;0.57;;;10.00;99.90;;;;;;4977681;28;20058;-44
2022/05/30 06:24:14;;;;;;;3.93;0.70;;;10.00;99.90;;;;;;4990409;28;20053;-44
2022/05/30 06:26:59;;;;;;;1.90;0.50;;;10.00;99.90;;;;;;4982097;28;20081;-43
2022/05/30 06:29:24;;;;;;;3.93;0.40;;;10.10;99.90;;;;;;4992000;28;20055;-43
2022/05/30 06:32:04;;;;;;;1.97;0.73;;;10.10;99.90;;;;;;4985602;28;20054;-43
2022/05/30 06:34:30;;;;;;;3.70;0.50;;;10.10;99.90;;;;;;5006992;28;20050;-42
2022/05/30 06:37:04;;;;;;;2.77;0.40;;;10.20;99.90;;;;;;4990927;28;20045;-42
2022/05/30 06:39:35;;;;;;;2.87;0.50;;;10.20;99.90;;;;;;4988769;28;20050;-44
2022/05/30 06:42:11;;;;;;;3.07;0.30;;;10.30;99.90;;;;;;4972302;28;20077;-43
2022/05/30 06:44:38;;;;;;;2.53;0.23;;;10.30;99.90;;;;;;4959595;28;20081;-43
2022/05/30 06:47:05;;;;;;;1.83;0.50;;;10.30;99.90;;;;;;4980722;28;20062;-43
2022/05/30 06:49:31;;;;;;;2.43;0.30;;;10.30;99.90;;;;;;4982124;28;20118;-43
2022/05/30 06:52:01;;;;;;;3.75;0.50;;;10.40;99.90;;;;;;4970720;28;20138;-43
2022/05/30 06:54:27;;;;;;;3.28;0.52;;;10.40;99.90;;;;;;4965134;28;20731;-42
2022/05/30 06:59:57;;;;;;;2.60;0.57;;;10.40;99.90;;;;;;4987100;28;20046;-43
2022/05/30 07:02:29;;;;;;;1.23;0.50;;;10.40;99.90;;;;;;4989394;28;20042;-44
2022/05/30 07:04:55;;;;;;;6.03;0.63;;;10.40;99.90;;;;;;4990631;28;20050;-43
2022/05/30 07:07:21;;;;;;;4.20;0.50;;;10.30;99.90;;;;;;4979246;28;20395;-42
2022/05/30 07:09:46;;;;;;;2.50;0.50;;;10.50;99.90;;;;;;4988017;28;20549;-43
2022/05/30 07:12:16;;;;;;;2.85;0.47;;;10.40;99.90;;;;;;4980323;28;20058;-43
2022/05/30 07:14:44;;;;;;;2.75;0.43;;;10.40;99.90;;;;;;4967748;28;20047;-43
2022/05/30 07:17:11;;;;;;;4.50;0.70;;;10.40;99.90;;;;;;4955517;28;20425;-43
2022/05/30 07:19:39;;;;;;;3.33;0.60;;;10.40;99.90;;;;;;4967067;28;20422;-44
2022/05/30 07:22:07;;;;;;;1.15;0.47;;;10.50;99.90;;;;;;4966828;28;20046;-44
2022/05/30 07:24:40;;;;;;;0.95;0.50;;;10.50;99.90;;;;;;4977176;28;20415;-43
2022/05/30 07:27:07;;;;;;;2.42;0.70;;;10.60;99.90;;;;;;4967411;28;20278;-43
2022/05/30 07:29:33;;;;;;;2.50;0.50;;;10.70;99.90;;;;;;4969922;28;20064;-43
2022/05/30 07:32:01;;;;;;;3.90;0.68;;;10.70;99.90;;;;;;4968192;28;20521;-43
2022/05/30 07:34:27;;;;;;;3.63;0.75;;;10.70;99.90;;;;;;4970290;28;20058;-43
2022/05/30 07:37:00;;;;;;;3.85;0.60;;;10.80;99.90;;;;;;4959839;28;20034;-43
2022/05/30 07:39:27;;;;;;;2.25;0.50;;;10.90;99.90;;;;;;4977073;28;20065;-44
2022/05/30 07:42:01;;;;;;;2.15;0.80;;;10.90;99.90;;;;;;4981584;28;20058;-45
2022/05/30 07:44:34;;;;;;;3.75;0.60;;;11.00;99.90;;;;;;4985402;28;20050;-43
2022/05/30 07:47:01;;;;;;;4.38;0.68;;;11.00;99.90;;;;;;4958005;28;20045;-43
2022/05/30 07:49:27;;;;;;;3.70;0.40;;;11.00;99.90;;;;;;4968400;28;20050;-44
2022/05/30 07:51:53;;;;;;;1.90;0.60;;;11.10;99.90;;;;;;4987898;28;20058;-45
2022/05/30 07:54:21;;;;;;;2.25;0.40;;;11.10;99.90;;;;;;4970042;28;20042;-44
2022/05/30 07:56:47;;;;;;;2.78;0.60;;;11.10;99.90;;;;;;4946960;28;20541;-44
2022/05/30 07:59:13;;;;;;;2.83;0.38;;;11.20;99.90;;;;;;4969290;28;20051;-43
2022/05/30 08:01:39;;;;;;;3.00;0.40;;;11.20;99.90;;;;;;4970316;28;20100;-43
2022/05/30 08:04:05;;;;;;;3.00;0.50;;;11.20;99.90;;;;;;4973102;28;20054;-43
2022/05/30 08:06:32;;;;;;;3.17;0.63;;;11.30;99.90;;;;;;4964482;28;20377;-44
2022/05/30 08:08:57;;;;;;;2.58;0.47;;;11.20;99.90;;;;;;4969033;28;20560;-43
2022/05/30 08:11:24;;;;;;;2.47;0.40;;;11.30;99.90;;;;;;4968336;28;20064;-44
2022/05/30 08:13:50;;;;;;;1.10;0.20;;;11.30;99.90;;;;;;4959845;28;20549;-43
2022/05/30 08:16:25;;;;;;;2.50;0.22;;;11.30;99.90;;;;;;4964629;28;20092;-43
2022/05/30 08:18:51;;;;;;;3.25;0.30;;;11.10;99.90;;;;;;4969004;28;20042;-43
2022/05/30 08:21:17;;;;;;;3.10;0.30;;;10.90;99.90;;;;;;4971126;28;20398;-43
2022/05/30 08:23:43;;;;;;;2.13;0.30;;;10.80;99.90;;;;;;4968405;28;20655;-42
2022/05/30 08:26:10;;;;;;;2.83;0.35;;;10.70;99.90;;;;;;4969124;28;20045;-42
2022/05/30 08:28:43;;;;;;;4.47;0.50;;;10.60;99.90;;;;;;4972688;28;20130;-42
2022/05/30 08:31:09;;;;;;;2.38;0.45;;;10.50;99.90;;;;;;4968880;28;20058;-42
2022/05/30 08:33:38;;;;;;;3.63;0.73;;;10.50;99.90;;;;;;4973041;28;20050;-42
2022/05/30 08:36:07;;;;;;;3.55;0.50;;;10.50;99.90;;;;;;4973795;28;20525;-42
2022/05/30 08:38:39;;;;;;;3.53;0.40;;;10.50;99.90;;;;;;4959461;28;20525;-42
2022/05/30 08:43:58;;;;;;;2.30;0.30;;;10.60;99.90;;;;;;4966414;28;20101;-42
2022/05/30 08:46:33;;;;;;;1.40;0.38;;;10.60;99.90;;;;;;4958244;28;20105;-42
2022/05/30 08:49:22;;;;;;;1.30;0.50;;;10.70;99.90;;;;;;4975709;28;20750;-43
2022/05/30 08:52:09;;;;;;;2.35;0.40;;;10.70;99.90;;;;;;4968923;28;20572;-42
2022/05/30 08:54:58;;;;;;;3.75;0.47;;;10.70;99.90;;;;;;4968564;28;20399;-42
2022/05/30 08:58:04;;;;;;;1.40;0.35;;;10.80;99.90;;;;;;4956219;28;20061;-42
2022/05/30 09:01:00;;;;;;;1.90;0.50;;;10.80;99.90;;;;;;4970380;28;20038;-42
2022/05/30 09:04:09;;;;;;;3.95;0.68;;;10.90;99.90;;;;;;4971038;28;20066;-42
2022/05/30 09:06:53;;;;;;;3.28;0.60;;;10.90;99.90;;;;;;4960218;28;20485;-41
2022/05/30 09:09:46;;;;;;;5.18;0.68;;;11.00;99.90;;;;;;4964386;28;21477;-42
2022/05/30 09:12:34;;;;;;;2.97;0.52;;;11.10;99.90;;;;;;4973932;28;20580;-42
2022/05/30 09:15:25;;;;;;;3.42;0.63;;;11.10;99.90;;;;;;4972545;28;21255;-43
2022/05/30 09:18:06;;;;;;;5.25;0.57;;;11.20;99.90;;;;;;4956239;28;20105;-42
2022/05/30 09:20:33;;;;;;;3.03;0.45;;;11.30;99.90;;;;;;4973262;28;20058;-42
2022/05/30 09:23:01;;;;;;;2.28;0.80;;;11.40;99.90;;;;;;4965581;28;20042;-43
2022/05/30 09:28:31;;;;;;;2.20;0.50;;;11.60;99.90;;;;;;4961457;28;20052;-42
2022/05/30 09:31:17;;;;;;;1.58;0.17;;;11.60;99.90;;;;;;4972220;28;20069;-43
2022/05/30 09:33:46;;;;;;;1.30;0.15;;;11.70;99.90;;;;;;4976719;28;20042;-42
2022/05/30 09:36:19;;;;;;;2.45;0.30;;;11.70;99.90;;;;;;4957703;28;20621;-42
2022/05/30 09:39:14;;;;;;;0.70;0.10;;;11.80;99.90;;;;;;4970427;28;20252;-42
2022/05/30 09:41:59;;;;;;;0.75;0.13;;;11.90;99.90;;;;;;4968578;28;20053;-42
2022/05/30 09:44:41;;;;;;;0.70;0.10;;;12.00;99.90;;;;;;4970567;28;20053;-42
2022/05/30 09:47:17;;;;;;;1.65;0.20;;;12.10;99.90;;;;;;4959981;28;20085;-43
2022/05/30 09:49:45;;;;;;;1.27;0.20;;;12.20;99.90;;;;;;4974161;28;20476;-42
2022/05/30 09:52:29;;;;;;;1.35;0.17;;;12.30;99.90;;;;;;4974905;28;20077;-42
2022/05/30 09:54:55;;;;;;;2.60;0.30;;;12.30;99.90;;;;;;4971888;28;20576;-42
2022/05/30 09:57:44;;;;;;;2.30;0.10;;;12.40;99.90;;;;;;4957776;28;20581;-42
2022/05/30 10:00:12;;;;;;;1.80;0.30;;;12.40;99.90;;;;;;4968007;28;20638;-42
2022/05/30 10:02:45;;;;;;;2.00;0.38;;;12.50;99.90;;;;;;4969005;28;20442;-42
2022/05/30 10:05:20;;;;;;;0.98;0.20;;;12.50;99.90;;;;;;4973963;28;20405;-42
2022/05/30 10:07:56;;;;;;;1.50;0.10;;;12.60;99.90;;;;;;4963705;28;20054;-42
2022/05/30 10:10:34;;;;;;;1.38;0.20;;;12.50;99.90;;;;;;4971795;28;20116;-43
2022/05/30 10:13:06;;;;;;;1.27;0.30;;;12.50;99.90;;;;;;4970610;28;20053;-42
2022/05/30 10:15:35;;;;;;;2.67;0.40;;;12.40;99.90;;;;;;4975576;28;20093;-42
2022/05/30 10:18:13;;;;;;;1.88;0.30;;;12.30;99.90;;;;;;4971933;28;20055;-42
2022/05/30 10:21:17;;;;;;;1.15;0.50;;;12.20;99.90;;;;;;4973668;28;20062;-42
2022/05/30 10:30:11;;;;;;;1.83;0.35;;;12.00;99.90;;;;;;4966278;28;20097;-43
2022/05/30 10:33:16;;;;;;;2.38;0.38;;;11.90;99.90;;;;;;4971261;28;21115;-43
2022/05/30 10:36:05;;;;;;;1.85;0.30;;;11.90;99.90;;;;;;4967058;28;20141;-43
2022/05/30 10:39:02;;;;;;;2.17;0.10;;;11.90;99.90;;;;;;4960082;28;20060;-43
2022/05/30 10:41:44;;;;;;;1.52;0.20;;;11.90;99.90;;;;;;4964476;28;20054;-44
2022/05/30 10:44:35;;;;;;;2.22;0.30;;;11.90;99.90;;;;;;4970236;28;21956;-43
2022/05/30 10:47:19;;;;;;;2.67;0.32;;;12.00;99.90;;;;;;4956072;28;20054;-43
2022/05/30 10:49:50;;;;;;;2.78;0.20;;;12.00;99.90;;;;;;4965971;28;20077;-42
2022/05/30 10:52:16;;;;;;;1.48;0.20;;;12.00;99.90;;;;;;4966838;28;20723;-42
2022/05/30 10:55:05;;;;;;;1.23;0.10;;;12.00;99.90;;;;;;4967964;28;20101;-43
2022/05/30 10:57:52;;;;;;;2.97;0.40;;;12.20;99.90;;;;;;4957154;28;20468;-43
2022/05/30 11:00:40;;;;;;;2.00;0.10;;;12.10;99.90;;;;;;4975232;28;20780;-43
2022/05/30 11:03:20;;;;;;;1.92;0.20;;;12.20;99.90;;;;;;4969337;28;20537;-42
2022/05/30 11:05:59;;;;;;;1.23;0.10;;;12.30;99.90;;;;;;4961592;28;22104;-42
2022/05/30 11:08:49;;;;;;;4.85;0.30;;;12.30;99.90;;;;;;4958026;28;20409;-42
2022/05/30 11:11:43;;;;;;;3.17;0.25;;;12.40;99.90;;;;;;4971887;28;20050;-42
2022/05/30 11:14:26;;;;;;;0.65;0.10;;;12.40;99.90;;;;;;4980663;28;20344;-42
2022/05/30 11:17:07;;;;;;;1.15;0.17;;;12.50;99.90;;;;;;4960206;28;20044;-42
2022/05/30 11:19:40;;;;;;;2.05;0.10;;;12.50;99.90;;;;;;4963438;28;20502;-42
2022/05/30 11:22:30;;;;;;;1.00;0.10;;;12.50;99.90;;;;;;4963893;28;20490;-42
2022/05/30 11:24:57;;;;;;;1.30;0.10;;;12.60;99.90;;;;;;4968540;28;20137;-43
2022/05/30 11:27:35;;;;;;;2.17;0.30;;;12.70;99.90;;;;;;4962671;28;20051;-42
2022/05/30 11:30:21;;;;;;;0.73;0.15;;;12.80;99.90;;;;;;4973676;28;20699;-42
2022/05/30 11:32:53;;;;;;;1.80;0.10;;;12.80;99.90;;;;;;4970745;28;20060;-43
2022/05/30 11:35:43;;;;;;;1.40;0.10;;;12.90;99.90;;;;;;4964919;28;20062;-43
2022/05/30 11:38:42;;;;;;;2.22;0.10;;;12.90;99.90;;;;;;4956445;28;20120;-42
2022/05/30 11:41:47;;;;;;;1.10;0.20;;;12.80;99.90;;;;;;4975732;28;20128;-42
2022/05/30 11:44:13;;;;;;;0.47;0.10;;;12.80;99.90;;;;;;4969588;28;20076;-42
2022/05/30 11:46:59;;;;;;;1.70;0.20;;;12.80;99.90;;;;;;4960090;28;20047;-41
2022/05/30 11:49:36;;;;;;;1.27;0.28;;;12.70;99.90;;;;;;4964125;28;20809;-41
2022/05/30 11:52:28;;;;;;;1.15;0.10;;;12.60;99.90;;;;;;4967942;28;20557;-41
2022/05/30 11:55:01;;;;;;;2.40;0.30;;;12.60;99.90;;;;;;4964220;28;20054;-42
2022/05/30 11:57:46;;;;;;;3.15;0.40;;;12.50;99.90;;;;;;4947809;28;20425;-42
2022/05/30 12:00:36;;;;;;;0.85;0.20;;;12.50;99.90;;;;;;4962813;28;20160;-42
2022/05/30 12:03:14;;;;;;;2.17;0.20;;;12.50;99.90;;;;;;4961645;28;20455;-42
2022/05/30 12:06:02;;;;;;;2.10;0.40;;;12.40;99.90;;;;;;4962962;28;20647;-42
2022/05/30 12:08:46;;;;;;;1.58;0.30;;;12.40;99.90;;;;;;4947993;28;20095;-42
2022/05/30 12:11:25;;;;;;;2.47;0.22;;;12.30;99.90;;;;;;4964537;28;20059;-42
2022/05/30 12:14:36;;;;;;;1.80;0.20;;;12.30;99.90;;;;;;4960751;28;20077;-43
2022/05/30 12:23:47;;;;;;;1.10;0.22;;;12.30;99.90;;;;;;4959583;28;21554;-43
2022/05/30 12:26:05;;;;;;;2.80;0.20;;;12.40;99.90;;;;;;4941435;28;20481;-42
2022/05/30 12:28:31;;;;;;;2.95;0.22;;;12.50;99.90;;;;;;4929386;28;20046;-43
2022/05/30 12:31:02;;;;;;;1.65;0.22;;;12.50;99.90;;;;;;4968386;28;20453;-42
2022/05/30 12:33:29;;;;;;;1.55;0.30;;;12.40;99.90;;;;;;4961792;28;20050;-42
2022/05/30 12:36:44;;;;;;;3.03;0.40;;;12.40;99.90;;;;;;4955022;28;22458;-42
2022/05/30 12:39:37;;;;;;;3.20;0.50;;;12.30;99.90;;;;;;4961306;28;20145;-42
2022/05/30 12:42:08;;;;;;;1.80;0.30;;;12.30;99.90;;;;;;4965146;28;20042;-43
2022/05/30 12:44:54;;;;;;;2.63;0.43;;;12.20;99.90;;;;;;4960634;28;20053;-43
2022/05/30 12:47:28;;;;;;;2.50;0.40;;;12.20;99.90;;;;;;4952702;28;20074;-42
2022/05/30 12:50:26;;;;;;;2.45;0.30;;;12.20;99.90;;;;;;4962992;28;20061;-42
2022/05/30 12:52:55;;;;;;;1.13;0.40;;;12.20;99.90;;;;;;4941839;28;20061;-42
2022/05/30 12:55:40;;;;;;;0.68;0.10;;;12.10;99.90;;;;;;4959826;28;20065;-42
2022/05/30 12:58:09;;;;;;;1.75;0.30;;;12.10;99.90;;;;;;4950759;28;20057;-42
2022/05/30 13:00:42;;;;;;;1.33;0.35;;;12.00;99.90;;;;;;4966466;28;20046;-41
2022/05/30 13:03:20;;;;;;;3.17;0.45;;;12.20;99.90;;;;;;4961483;28;20057;-42
2022/05/30 13:06:00;;;;;;;1.73;0.57;;;12.00;99.90;;;;;;4964334;28;20053;-42
2022/05/30 13:08:46;;;;;;;2.05;0.50;;;11.90;99.90;;;;;;4948827;28;20113;-42
2022/05/30 13:11:50;;;;;;;1.83;0.40;;;11.90;99.90;;;;;;4963344;28;20060;-42
2022/05/30 13:14:51;;;;;;;5.25;0.73;;;11.90;99.90;;;;;;4962239;28;20046;-41
2022/05/30 13:17:23;;;;;;;2.30;0.77;;;11.90;99.90;;;;;;4950281;28;20046;-41
2022/05/30 13:19:58;;;;;;;3.22;0.57;;;11.90;99.90;;;;;;4965534;28;20437;-44
2022/05/30 13:22:34;;;;;;;1.90;0.47;;;11.90;99.90;;;;;;4961853;28;20054;-44
2022/05/30 13:25:00;;;;;;;2.63;0.70;;;11.80;99.90;;;;;;4960913;28;20046;-44
2022/05/30 13:27:29;;;;;;;2.40;0.50;;;11.80;99.90;;;;;;4945700;28;20125;-44
2022/05/30 13:29:56;;;;;;;3.22;0.60;;;11.80;99.90;;;;;;4963282;28;20046;-44
2022/05/30 13:32:28;;;;;;;1.65;0.52;;;11.80;99.90;;;;;;4961787;28;20065;-44
2022/05/30 13:34:58;;;;;;;2.35;0.40;;;11.90;99.90;;;;;;4965200;28;20074;-44
2022/05/30 13:37:34;;;;;;;2.13;0.50;;;12.00;99.90;;;;;;4948679;28;20413;-43
2022/05/30 13:40:05;;;;;;;1.13;0.43;;;12.00;99.90;;;;;;4960001;28;20054;-43
2022/05/30 13:42:45;;;;;;;0.90;0.22;;;12.20;99.90;;;;;;4961740;28;20050;-43
2022/05/30 13:45:11;;;;;;;4.47;0.60;;;12.10;99.90;;;;;;4964193;28;20394;-42
2022/05/30 13:47:41;;;;;;;1.25;0.52;;;12.10;99.90;;;;;;4952622;28;20051;-41
2022/05/30 13:50:07;;;;;;;1.45;0.60;;;12.20;99.90;;;;;;4944882;28;20144;-43
2022/05/30 13:52:36;;;;;;;1.58;0.60;;;12.30;99.90;;;;;;4962941;28;20073;-43
2022/05/30 13:55:15;;;;;;;1.23;0.70;;;12.30;99.90;;;;;;4968072;28;20100;-42